createdAt,value
2022-08-03T00:01:55.222Z,15.93
2022-08-03T00:04:58.249Z,15.80
2022-08-03T00:08:01.541Z,15.71
2022-08-03T00:11:08.587Z,15.70
2022-08-03T00:14:11.957Z,15.67
2022-08-03T00:17:14.550Z,15.70
2022-08-03T00:20:16.691Z,15.67
2022-08-03T00:23:18.724Z,15.65
2022-08-03T00:26:23.790Z,15.63
2022-08-03T00:29:26.072Z,15.62
2022-08-03T00:32:28.273Z,15.65
2022-08-03T00:35:37.001Z,15.67
2022-08-03T00:38:52.607Z,15.64
2022-08-03T00:41:54.613Z,15.60
2022-08-03T00:44:56.628Z,15.53
2022-08-03T00:48:00.090Z,15.44
2022-08-03T00:51:02.754Z,15.30
2022-08-03T00:54:05.188Z,15.16
2022-08-03T00:57:07.898Z,15.14
2022-08-03T01:00:12.472Z,15.13
2022-08-03T01:03:14.461Z,15.13
2022-08-03T01:06:19.895Z,15.19
2022-08-03T01:09:39.913Z,15.05
2022-08-03T01:12:46.531Z,15.01
2022-08-03T01:15:48.435Z,15.02
2022-08-03T01:19:02.659Z,14.94
2022-08-03T01:22:41.413Z,14.84
2022-08-03T01:26:06.216Z,14.81
2022-08-03T01:29:30.052Z,14.81
2022-08-03T01:33:00.579Z,14.94
2022-08-03T01:36:13.182Z,14.95
2022-08-03T01:39:17.075Z,14.86
2022-08-03T01:42:21.885Z,14.87
2022-08-03T01:45:24.955Z,14.92
2022-08-03T01:48:28.197Z,14.91
2022-08-03T01:52:03.161Z,14.85
2022-08-03T01:54:55.833Z,14.86
2022-08-03T01:58:05.655Z,14.83
2022-08-03T02:01:10.472Z,14.69
2022-08-03T02:04:15.648Z,14.65
2022-08-03T02:07:18.538Z,14.65
2022-08-03T02:10:34.371Z,14.61
2022-08-03T02:13:39.745Z,14.57
2022-08-03T02:16:45.476Z,14.62
2022-08-03T02:19:48.435Z,14.62
2022-08-03T02:22:50.466Z,14.64
2022-08-03T02:25:57.979Z,14.65
2022-08-03T02:29:07.146Z,14.66
2022-08-03T02:32:16.757Z,14.60
2022-08-03T02:35:22.626Z,14.48
2022-08-03T02:38:31.591Z,14.36
2022-08-03T02:41:38.402Z,14.37
2022-08-03T02:44:47.850Z,14.42
2022-08-03T02:47:54.017Z,14.49
2022-08-03T02:51:00.133Z,14.58
2022-08-03T02:54:04.057Z,14.64
2022-08-03T02:57:09.689Z,14.58
2022-08-03T03:00:13.239Z,14.58
2022-08-03T03:03:35.297Z,14.54
2022-08-03T03:06:47.173Z,14.50
2022-08-03T03:09:51.109Z,14.54
2022-08-03T03:12:56.277Z,14.52
2022-08-03T03:16:05.109Z,14.50
2022-08-03T03:19:17.052Z,14.48
2022-08-03T03:22:22.686Z,14.41
2022-08-03T03:25:25.195Z,14.40
2022-08-03T03:28:27.517Z,14.45
2022-08-03T03:31:29.868Z,14.45
2022-08-03T03:34:32.328Z,14.43
2022-08-03T03:37:35.366Z,14.38
2022-08-03T03:40:38.305Z,14.36
2022-08-03T03:43:40.477Z,14.36
2022-08-03T03:46:42.848Z,14.33
2022-08-03T03:49:45.560Z,14.31
2022-08-03T03:52:47.568Z,14.27
2022-08-03T03:55:58.984Z,14.27
2022-08-03T03:59:04.902Z,14.27
2022-08-03T04:02:09.272Z,14.33
2022-08-03T04:05:30.387Z,14.30
2022-08-03T04:08:50.806Z,14.22
2022-08-03T04:11:58.759Z,14.27
2022-08-03T04:15:02.641Z,14.29
2022-08-03T04:18:06.731Z,14.34
2022-08-03T04:21:12.853Z,14.34
2022-08-03T04:24:15.910Z,14.42
2022-08-03T04:27:23.497Z,14.48
2022-08-03T04:30:28.563Z,14.44
2022-08-03T04:33:34.905Z,14.47
2022-08-03T04:36:44.970Z,14.54
2022-08-03T04:39:50.054Z,14.59
2022-08-03T04:42:55.965Z,14.58
2022-08-03T04:45:59.763Z,14.57
2022-08-03T04:49:02.597Z,14.52
2022-08-03T04:52:07.589Z,14.51
2022-08-03T04:55:09.826Z,14.51
2022-08-03T04:58:12.746Z,14.50
2022-08-03T05:01:16.070Z,14.51
2022-08-03T05:04:18.579Z,14.53
2022-08-03T05:07:24.864Z,14.54
2022-08-03T05:10:27.355Z,14.61
2022-08-03T05:13:29.366Z,14.57
2022-08-03T05:16:31.562Z,14.64
2022-08-03T05:19:33.631Z,14.71
2022-08-03T05:22:35.725Z,14.75
2022-08-03T05:25:37.769Z,14.78
2022-08-03T05:28:50.816Z,14.90
2022-08-03T05:31:57.501Z,14.92
2022-08-03T05:35:00.423Z,14.94
2022-08-03T05:38:28.165Z,14.98
2022-08-03T05:41:37.071Z,14.98
2022-08-03T05:44:39.646Z,15.10
2022-08-03T05:47:44.381Z,15.20
2022-08-03T05:50:46.426Z,15.28
2022-08-03T05:53:48.403Z,15.35
2022-08-03T05:56:50.682Z,15.42
2022-08-03T05:59:54.792Z,15.52
2022-08-03T06:03:00.923Z,15.60
2022-08-03T06:06:03.007Z,15.67
2022-08-03T06:09:05.198Z,15.70
2022-08-03T06:12:10.089Z,15.77
2022-08-03T06:15:16.718Z,15.86
2022-08-03T06:18:18.871Z,15.97
2022-08-03T06:21:20.845Z,16.07
2022-08-03T06:24:25.105Z,16.18
2022-08-03T06:27:36.849Z,16.32
2022-08-03T06:30:39.936Z,16.44
2022-08-03T06:34:30.907Z,16.60
2022-08-03T06:37:03.992Z,16.77
2022-08-03T06:40:07.762Z,16.97
2022-08-03T06:43:12.492Z,17.18
2022-08-03T06:46:14.872Z,17.40
2022-08-03T06:49:17.162Z,17.62
2022-08-03T06:52:37.189Z,18.01
2022-08-03T06:55:42.311Z,18.38
2022-08-03T06:58:44.629Z,18.73
2022-08-03T07:01:52.874Z,19.07
2022-08-03T07:04:54.969Z,19.43
2022-08-03T07:08:02.047Z,19.80
2022-08-03T07:11:04.096Z,20.20
2022-08-03T07:14:06.520Z,20.60
2022-08-03T07:17:11.718Z,20.89
2022-08-03T07:20:15.394Z,21.19
2022-08-03T07:23:19.319Z,21.62
2022-08-03T07:26:21.606Z,22.04
2022-08-03T07:29:23.677Z,22.38
2022-08-03T07:32:26.525Z,22.73
2022-08-03T07:35:28.494Z,23.26
2022-08-03T07:38:30.508Z,23.86
2022-08-03T07:41:32.644Z,24.10
2022-08-03T07:44:34.769Z,24.47
2022-08-03T07:47:36.798Z,24.98
2022-08-03T07:50:38.775Z,25.57
2022-08-03T07:53:45.983Z,25.99
2022-08-03T07:56:49.800Z,26.18
2022-08-03T08:00:01.717Z,26.57
2022-08-03T08:03:13.965Z,26.95
2022-08-03T08:06:16.499Z,27.28
2022-08-03T08:09:18.473Z,27.61
2022-08-03T08:12:20.651Z,27.75
2022-08-03T08:15:23.140Z,28.03
2022-08-03T08:18:25.324Z,28.38
2022-08-03T08:21:53.262Z,28.02
2022-08-03T08:24:49.394Z,28.23
2022-08-03T08:28:31.450Z,28.35
2022-08-03T08:31:15.995Z,28.85
2022-08-03T08:34:18.038Z,28.90
2022-08-03T08:37:20.065Z,29.17
2022-08-03T08:40:23.091Z,29.23
2022-08-03T08:43:25.161Z,29.77
2022-08-03T08:46:27.747Z,29.38
2022-08-03T08:49:33.137Z,29.71
2022-08-03T08:52:35.927Z,29.94
2022-08-03T08:55:56.932Z,30.30
2022-08-03T08:59:02.972Z,30.32
2022-08-03T10:01:56.933Z,33.16
2022-08-03T10:04:58.913Z,33.20
2022-08-03T10:08:01.129Z,33.61
2022-08-03T10:11:03.129Z,33.74
2022-08-03T10:14:06.829Z,33.70
2022-08-03T10:17:09.890Z,33.65
2022-08-03T10:20:12.382Z,33.82
2022-08-03T10:23:17.054Z,33.85
2022-08-03T10:26:22.881Z,34.60
2022-08-03T10:29:28.544Z,33.73
2022-08-03T10:32:52.594Z,33.98
2022-08-03T10:35:59.518Z,33.38
2022-08-03T10:39:02.949Z,33.73
2022-08-03T10:42:18.164Z,33.81
2022-08-03T10:45:24.212Z,33.96
2022-08-03T10:48:26.804Z,34.12
2022-08-03T10:51:32.387Z,33.78
2022-08-03T10:54:37.437Z,33.91
2022-08-03T10:57:46.484Z,33.99
2022-08-03T11:00:51.307Z,33.77
2022-08-03T11:03:53.317Z,33.98
2022-08-03T11:07:25.345Z,34.08
2022-08-03T11:10:32.007Z,33.95
2022-08-03T11:13:34.213Z,34.12
2022-08-03T11:16:38.951Z,34.33
2022-08-03T11:19:57.023Z,34.78
2022-08-03T11:23:01.793Z,35.46
2022-08-03T11:26:22.745Z,36.19
2022-08-03T11:29:31.391Z,35.76
2022-08-03T11:32:46.857Z,36.18
2022-08-03T11:36:02.988Z,35.51
2022-08-03T11:39:16.678Z,36.39
2022-08-03T11:42:24.782Z,35.91
2022-08-03T11:45:27.209Z,35.95
2022-08-03T11:48:38.390Z,35.97
2022-08-03T11:51:41.057Z,36.22
2022-08-03T11:54:43.918Z,36.72
2022-08-03T11:59:00.904Z,37.04
2022-08-03T12:01:12.550Z,36.92
2022-08-03T12:04:16.519Z,37.00
2022-08-03T12:08:02.264Z,36.38
2022-08-03T12:10:47.747Z,35.85
2022-08-03T12:14:44.170Z,35.41
2022-08-03T12:17:13.362Z,35.08
2022-08-03T12:20:31.554Z,35.23
2022-08-03T12:23:38.368Z,35.73
2022-08-03T12:26:58.459Z,35.95
2022-08-03T12:30:02.478Z,35.49
2022-08-03T12:33:14.925Z,35.07
2022-08-03T12:36:17.301Z,35.13
2022-08-03T12:39:23.951Z,35.38
2022-08-03T12:42:36.820Z,35.40
2022-08-03T12:45:38.895Z,36.15
2022-08-03T12:49:00.517Z,35.57
2022-08-03T12:52:07.027Z,36.17
2022-08-03T12:55:21.831Z,36.33
2022-08-03T12:58:34.697Z,37.15
2022-08-03T13:01:55.305Z,37.31
2022-08-03T13:04:58.128Z,37.73
2022-08-03T13:08:00.220Z,37.47
2022-08-03T13:11:22.383Z,36.86
2022-08-03T13:14:24.403Z,35.65
2022-08-03T13:17:27.515Z,34.89
2022-08-03T13:20:29.620Z,35.57
2022-08-03T13:23:31.645Z,36.04
2022-08-03T13:26:33.559Z,36.93
2022-08-03T13:29:35.768Z,37.46
2022-08-03T13:32:37.769Z,37.59
2022-08-03T13:35:39.771Z,36.72
2022-08-03T13:38:41.801Z,36.53
2022-08-03T13:41:44.649Z,37.48
2022-08-03T13:44:46.694Z,38.58
2022-08-03T13:47:49.730Z,39.42
2022-08-03T13:50:51.742Z,39.83
2022-08-03T13:53:53.864Z,40.30
2022-08-03T13:57:00.368Z,40.19
2022-08-03T14:00:27.895Z,40.46
2022-08-03T14:03:30.820Z,40.50
2022-08-03T14:06:33.040Z,41.26
2022-08-03T14:09:35.137Z,41.21
2022-08-03T14:12:37.123Z,42.64
2022-08-03T14:15:39.188Z,43.33
2022-08-03T14:18:42.551Z,45.38
2022-08-03T14:21:46.275Z,45.63
2022-08-03T14:25:04.148Z,45.81
2022-08-03T14:28:06.132Z,47.17
2022-08-03T14:32:09.097Z,48.07
2022-08-03T14:34:30.371Z,48.50
2022-08-03T14:37:33.810Z,48.68
2022-08-03T14:40:35.978Z,47.02
2022-08-03T14:43:37.981Z,47.72
2022-08-03T14:46:39.992Z,48.46
2022-08-03T14:50:38.879Z,48.44
2022-08-03T14:53:04.992Z,48.13
2022-08-03T14:56:10.375Z,48.15
2022-08-03T14:59:12.823Z,47.18
2022-08-03T15:52:56.209Z,49.07
2022-08-03T15:55:59.824Z,48.74
2022-08-03T15:59:12.044Z,48.74
2022-08-03T16:02:16.128Z,47.48
2022-08-03T16:05:18.263Z,46.05
2022-08-03T16:08:20.552Z,42.99
2022-08-03T16:11:22.675Z,42.92
2022-08-03T16:14:34.235Z,41.21
2022-08-03T16:17:41.092Z,37.98
2022-08-03T16:20:45.122Z,35.80
2022-08-03T16:23:47.796Z,34.46
2022-08-03T16:26:50.141Z,33.20
2022-08-03T16:29:52.402Z,32.41
2022-08-03T16:32:54.527Z,32.08
2022-08-03T16:35:56.669Z,31.36
2022-08-03T16:38:58.741Z,31.36
2022-08-03T16:42:03.553Z,31.43
2022-08-03T16:45:07.638Z,31.09
2022-08-03T16:48:09.883Z,30.74
2022-08-03T16:51:11.915Z,30.27
2022-08-03T16:54:15.681Z,29.72
2022-08-03T16:57:55.999Z,29.20
2022-08-03T17:00:43.305Z,28.81
2022-08-03T17:03:57.383Z,28.59
2022-08-03T17:07:07.188Z,28.43
2022-08-03T17:10:12.484Z,27.99
2022-08-03T17:13:21.846Z,27.73
2022-08-03T17:16:24.690Z,27.39
2022-08-03T17:19:29.717Z,27.18
2022-08-03T17:22:34.793Z,26.76
2022-08-03T17:25:39.867Z,26.47
2022-08-03T17:29:12.655Z,26.20
2022-08-03T17:32:21.613Z,25.94
2022-08-03T17:35:23.979Z,25.74
2022-08-03T17:38:26.602Z,25.50
2022-08-03T17:41:34.051Z,25.15
2022-08-03T17:47:58.739Z,24.77
2022-08-03T17:51:07.849Z,24.50
2022-08-03T17:54:24.149Z,24.24
2022-08-03T17:57:29.153Z,24.06
2022-08-03T18:01:59.613Z,23.91
2022-08-03T18:04:44.327Z,23.58
2022-08-03T18:08:02.486Z,23.46
2022-08-03T18:11:09.746Z,23.39
2022-08-03T18:14:27.704Z,23.19
2022-08-03T18:17:54.714Z,23.05
2022-08-03T18:21:01.165Z,22.81
2022-08-03T18:24:07.895Z,22.64
2022-08-03T18:27:16.186Z,22.53
2022-08-03T18:30:21.783Z,22.45
2022-08-03T18:34:18.323Z,22.21
2022-08-03T18:36:55.939Z,21.95
2022-08-03T18:39:58.512Z,21.81
2022-08-03T18:43:08.879Z,21.70
2022-08-03T18:46:48.144Z,21.61
2022-08-03T18:50:19.255Z,21.38
2022-08-03T18:54:03.010Z,21.18
2022-08-03T18:57:07.616Z,21.08
2022-08-03T19:00:24.279Z,21.03
2022-08-03T19:03:43.583Z,21.00
2022-08-03T19:06:48.843Z,20.89
2022-08-03T19:09:56.162Z,20.77
2022-08-03T19:13:31.024Z,20.62
2022-08-03T19:16:41.883Z,20.49
2022-08-03T19:19:48.123Z,20.52
2022-08-03T19:22:52.394Z,20.46
2022-08-03T19:25:56.898Z,20.30
2022-08-03T19:28:59.486Z,20.28
2022-08-03T19:32:02.897Z,20.20
2022-08-03T19:35:13.345Z,20.18
2022-08-03T19:38:28.374Z,20.11
2022-08-03T19:41:42.335Z,19.97
2022-08-03T19:44:50.579Z,19.83
2022-08-03T19:48:08.033Z,19.73
2022-08-03T19:51:12.383Z,19.60
2022-08-03T19:54:16.320Z,19.52
2022-08-03T19:57:22.861Z,19.43
2022-08-03T20:00:34.055Z,19.32
2022-08-03T20:03:43.423Z,19.30
2022-08-03T20:06:47.448Z,19.18
2022-08-03T20:09:54.591Z,19.11
2022-08-03T20:12:59.899Z,19.16
2022-08-03T20:16:02.384Z,19.13
2022-08-03T20:19:05.326Z,19.00
2022-08-03T20:22:16.692Z,18.89
2022-08-03T20:25:25.260Z,18.74
2022-08-03T20:29:09.235Z,18.72
2022-08-03T20:32:13.136Z,18.63
2022-08-03T20:35:15.336Z,18.57
2022-08-03T20:38:19.652Z,18.59
2022-08-03T20:41:22.478Z,18.48
2022-08-03T20:44:25.737Z,18.37
2022-08-03T20:47:29.618Z,18.25
2022-08-03T20:50:35.047Z,18.26
2022-08-03T21:13:04.699Z,24.93
2022-08-03T21:53:10.870Z,17.23
2022-08-03T21:56:16.021Z,17.24
2022-08-03T21:59:20.185Z,17.27
2022-08-03T22:02:27.812Z,17.25
2022-08-03T22:05:43.482Z,17.20
2022-08-03T22:08:47.555Z,17.06
2022-08-03T22:11:54.308Z,17.00
2022-08-03T22:15:01.526Z,16.95
2022-08-03T22:18:04.948Z,16.86
2022-08-03T22:21:09.352Z,16.76
2022-08-03T22:24:11.796Z,16.68
2022-08-03T22:27:32.142Z,16.67
2022-08-03T22:30:35.242Z,16.65
2022-08-03T22:33:38.626Z,16.57
2022-08-03T22:36:40.849Z,16.54
2022-08-03T22:39:43.994Z,16.54
2022-08-03T22:42:49.513Z,16.50
2022-08-03T22:46:10.540Z,16.45
2022-08-03T22:49:15.352Z,16.40
2022-08-03T23:55:52.504Z,15.69
2022-08-03T23:59:26.996Z,15.64
